Time;durP1;ratioP1;P1;durP2;ratioP2;P2;SDS_P1;SDS_P2;PMS_P1;PMS_P2;Temp;Humidity;BMP_temperature;BMP_pressure;BME280_temperature;BME280_humidity;BME280_pressure;Samples;Min_cycle;Max_cycle;Signal;HPM_P1;HPM_P2
2022/02/06 00:00:46;;;;;;;13.55;5.60;;;7.20;99.90;;;;;;4956926;28;20050;-58
2022/02/06 00:03:14;;;;;;;15.57;5.70;;;7.20;99.90;;;;;;4957637;28;20165;-58
2022/02/06 00:05:40;;;;;;;23.73;6.28;;;7.20;99.90;;;;;;4988013;28;20063;-58
2022/02/06 00:08:10;;;;;;;22.80;6.05;;;7.20;99.90;;;;;;4967916;28;20054;-58
2022/02/06 00:10:38;;;;;;;20.33;6.60;;;7.20;99.90;;;;;;4963005;28;20077;-57
2022/02/06 00:13:04;;;;;;;19.60;6.28;;;7.20;99.90;;;;;;4943685;28;20478;-57
2022/02/06 00:15:30;;;;;;;19.25;5.53;;;7.30;99.90;;;;;;4950772;28;20122;-58
2022/02/06 00:17:57;;;;;;;26.80;7.10;;;7.30;99.90;;;;;;4947488;28;20054;-58
2022/02/06 00:20:30;;;;;;;16.52;5.22;;;7.30;99.90;;;;;;4973489;28;20047;-58
2022/02/06 00:22:59;;;;;;;27.98;5.72;;;7.30;99.90;;;;;;4963322;28;20133;-58
2022/02/06 00:33:42;;;;;;;28.70;5.53;;;7.40;99.90;;;;;;4951532;28;20383;-58
2022/02/06 00:41:24;;;;;;;23.45;5.35;;;7.40;99.90;;;;;;4958145;28;20055;-58
2022/02/06 00:43:50;;;;;;;23.98;5.70;;;7.40;99.90;;;;;;4956924;28;20104;-57
2022/02/06 00:46:17;;;;;;;27.95;5.68;;;7.40;99.90;;;;;;4956085;28;20471;-58
2022/02/06 00:48:53;;;;;;;24.27;6.00;;;7.40;99.90;;;;;;4944969;28;20668;-58
2022/02/06 00:53:48;;;;;;;30.08;5.88;;;7.50;99.90;;;;;;4959366;28;20508;-58
2022/02/06 00:56:14;;;;;;;28.58;5.65;;;7.50;99.90;;;;;;4970967;28;20565;-58
2022/02/06 00:58:40;;;;;;;29.33;5.90;;;7.50;99.90;;;;;;4944522;28;21434;-58
2022/02/06 01:01:06;;;;;;;24.73;5.22;;;7.50;99.90;;;;;;4940568;29;20047;-57
2022/02/06 01:03:33;;;;;;;25.98;5.30;;;7.60;99.90;;;;;;4945969;28;20046;-58
2022/02/06 01:05:59;;;;;;;21.48;5.25;;;7.50;99.90;;;;;;4945023;28;20425;-57
2022/02/06 01:08:25;;;;;;;34.45;6.32;;;7.50;99.90;;;;;;4957640;28;20410;-58
2022/02/06 01:10:52;;;;;;;21.77;5.60;;;7.60;99.90;;;;;;4959940;28;20429;-58
2022/02/06 01:16:12;;;;;;;29.00;6.25;;;7.50;99.90;;;;;;4944481;29;20549;-58
2022/02/06 01:18:45;;;;;;;32.17;6.35;;;7.60;99.90;;;;;;4959673;28;20057;-58
2022/02/06 01:21:24;;;;;;;23.17;7.15;;;7.60;99.90;;;;;;4970812;28;20062;-58
2022/02/06 01:23:58;;;;;;;25.98;6.47;;;7.60;99.90;;;;;;4974768;28;20051;-58
2022/02/06 01:29:08;;;;;;;30.70;8.05;;;7.60;99.90;;;;;;4960449;28;20557;-58
2022/02/06 01:34:02;;;;;;;31.52;7.22;;;7.60;99.90;;;;;;4980474;28;20052;-58
2022/02/06 01:36:40;;;;;;;28.08;7.00;;;7.60;99.90;;;;;;4954720;28;20054;-58
2022/02/06 01:39:17;;;;;;;29.52;6.43;;;7.60;99.90;;;;;;4946476;28;20042;-53
2022/02/06 01:41:48;;;;;;;29.58;6.05;;;7.60;99.90;;;;;;4960070;28;20051;-57
2022/02/06 02:03:14;;;;;;;25.55;5.25;;;7.60;99.90;;;;;;4968788;28;20062;-58
2022/02/06 02:30:16;;;;;;;31.75;7.00;;;7.60;99.90;;;;;;4968269;28;20577;-57
2022/02/06 02:43:31;;;;;;;39.33;6.70;;;7.70;99.90;;;;;;4969668;28;20068;-58
2022/02/06 02:48:21;;;;;;;26.92;5.65;;;7.70;99.90;;;;;;4942785;28;20252;-58
2022/02/06 02:50:55;;;;;;;31.85;7.18;;;7.70;99.90;;;;;;4982038;28;20164;-58
2022/02/06 02:58:41;;;;;;;30.30;6.70;;;7.80;99.90;;;;;;4961438;28;20086;-58
2022/02/06 03:01:21;;;;;;;36.58;7.68;;;7.80;99.90;;;;;;4945437;28;20063;-58
2022/02/06 03:03:47;;;;;;;31.65;7.22;;;7.80;99.90;;;;;;4949502;28;20059;-54
2022/02/06 03:06:13;;;;;;;28.90;6.28;;;7.70;99.90;;;;;;4981672;28;20125;-54
2022/02/06 03:08:41;;;;;;;28.65;6.93;;;7.70;99.90;;;;;;5016269;28;20051;-54
2022/02/06 03:11:09;;;;;;;33.17;7.72;;;7.70;99.90;;;;;;4961837;28;20046;-54
2022/02/06 03:13:48;;;;;;;35.28;6.85;;;7.70;99.90;;;;;;4978288;28;20065;-53
2022/02/06 03:16:20;;;;;;;30.75;7.10;;;7.80;99.90;;;;;;4939074;28;20043;-54
2022/02/06 03:18:56;;;;;;;40.97;7.50;;;7.80;99.90;;;;;;4961084;28;20482;-54
2022/02/06 03:21:25;;;;;;;29.05;6.93;;;7.70;99.90;;;;;;4947576;28;20074;-54
2022/02/06 03:23:56;;;;;;;34.65;7.30;;;7.70;99.90;;;;;;4980304;28;20065;-55
2022/02/06 03:26:25;;;;;;;38.25;7.28;;;7.70;99.90;;;;;;4955646;28;20649;-53
2022/02/06 03:28:54;;;;;;;25.75;6.90;;;7.80;99.90;;;;;;4961633;28;20050;-53
2022/02/06 03:31:21;;;;;;;31.77;6.65;;;7.70;99.90;;;;;;4987321;28;20054;-54
2022/02/06 03:33:50;;;;;;;36.25;7.25;;;7.80;99.90;;;;;;4959186;28;20395;-54
2022/02/06 03:36:18;;;;;;;29.58;6.65;;;7.80;99.90;;;;;;4964227;28;20103;-54
2022/02/06 03:38:46;;;;;;;32.65;8.43;;;7.80;99.90;;;;;;4947619;28;20079;-53
2022/02/06 03:41:13;;;;;;;32.38;6.95;;;7.80;99.90;;;;;;4959987;28;20453;-55
2022/02/06 03:43:55;;;;;;;28.45;6.28;;;7.80;99.90;;;;;;4959171;28;20097;-53
2022/02/06 03:46:32;;;;;;;33.83;7.47;;;7.80;99.90;;;;;;4950411;28;20051;-55
2022/02/06 03:49:13;;;;;;;25.77;5.85;;;7.80;99.90;;;;;;4971194;28;20169;-54
2022/02/06 03:51:39;;;;;;;39.55;6.88;;;7.80;99.90;;;;;;4960487;28;20142;-52
2022/02/06 03:54:09;;;;;;;28.52;5.90;;;7.90;99.90;;;;;;4954558;28;20047;-54
2022/02/06 03:56:35;;;;;;;29.52;6.43;;;7.90;99.90;;;;;;4952680;28;20053;-53
2022/02/06 03:59:04;;;;;;;28.35;7.10;;;7.90;99.90;;;;;;4969098;28;20039;-54
2022/02/06 04:01:30;;;;;;;27.17;5.63;;;7.90;99.90;;;;;;4956787;28;20200;-55
2022/02/06 04:03:56;;;;;;;28.40;5.95;;;7.80;99.90;;;;;;4954123;28;20061;-53
2022/02/06 04:06:26;;;;;;;28.38;5.80;;;7.80;99.90;;;;;;4960431;28;20047;-53
2022/02/06 04:08:52;;;;;;;28.27;6.57;;;7.80;99.90;;;;;;4980196;28;20158;-52
2022/02/06 04:11:30;;;;;;;27.23;6.63;;;7.90;99.90;;;;;;4964871;28;20062;-53
2022/02/06 04:14:08;;;;;;;23.42;6.28;;;7.90;99.90;;;;;;4960530;28;20481;-58
2022/02/06 04:16:49;;;;;;;30.23;6.03;;;7.90;99.90;;;;;;4961095;28;20070;-58
2022/02/06 04:19:21;;;;;;;32.95;5.97;;;7.80;99.90;;;;;;4961344;28;20498;-58
2022/02/06 04:21:47;;;;;;;30.90;5.70;;;7.90;99.90;;;;;;4955332;28;20067;-58
2022/02/06 04:24:14;;;;;;;31.80;5.90;;;7.90;99.90;;;;;;5036498;28;20053;-52
2022/02/06 04:26:41;;;;;;;25.67;5.90;;;7.90;99.90;;;;;;4989724;28;20051;-57
2022/02/06 04:29:08;;;;;;;28.77;6.40;;;7.90;99.90;;;;;;4946016;28;20051;-58
2022/02/06 04:31:37;;;;;;;26.33;5.63;;;7.90;99.90;;;;;;4950949;28;20043;-57
2022/02/06 04:34:03;;;;;;;26.70;5.05;;;7.90;99.90;;;;;;4960209;28;20495;-58
2022/02/06 04:36:36;;;;;;;28.48;5.95;;;7.90;99.90;;;;;;4974866;28;20161;-58
2022/02/06 04:42:10;;;;;;;27.33;5.93;;;7.90;99.90;;;;;;4949979;28;20046;-58
2022/02/06 04:50:09;;;;;;;22.55;5.47;;;7.90;99.90;;;;;;5014466;28;20277;-58
2022/02/06 05:32:39;;;;;;;36.70;6.28;;;7.90;99.90;;;;;;4953315;28;20048;-58
2022/02/06 05:35:07;;;;;;;26.83;6.30;;;7.90;99.90;;;;;;4962588;28;20051;-58
2022/02/06 05:37:34;;;;;;;27.88;6.85;;;7.90;99.90;;;;;;4931478;28;20180;-56
2022/02/06 05:40:00;;;;;;;29.15;5.72;;;7.90;99.90;;;;;;5013838;28;20044;-56
2022/02/06 05:42:26;;;;;;;31.88;6.97;;;7.90;99.90;;;;;;4989583;28;20183;-56
2022/02/06 05:44:55;;;;;;;23.85;6.28;;;7.90;99.90;;;;;;4954242;28;20058;-57
2022/02/06 05:47:26;;;;;;;30.27;5.60;;;7.90;99.90;;;;;;4950606;28;20047;-56
2022/02/06 05:49:54;;;;;;;32.78;6.35;;;7.90;99.90;;;;;;4963415;28;20047;-57
2022/02/06 05:52:21;;;;;;;26.92;5.93;;;7.90;99.90;;;;;;4976423;28;20677;-57
2022/02/06 05:54:48;;;;;;;36.58;6.30;;;7.90;99.90;;;;;;4959548;28;20043;-57
2022/02/06 05:57:14;;;;;;;35.47;7.05;;;7.90;99.90;;;;;;4953916;28;20048;-56
2022/02/06 05:59:40;;;;;;;29.33;5.47;;;7.90;99.90;;;;;;4943972;28;20070;-57
2022/02/06 06:02:06;;;;;;;41.95;7.35;;;7.90;99.90;;;;;;4960764;28;20058;-57
2022/02/06 06:04:32;;;;;;;34.58;6.75;;;7.90;99.90;;;;;;4977576;28;20646;-57
2022/02/06 06:06:59;;;;;;;34.90;6.45;;;7.80;99.90;;;;;;4964304;28;20506;-57
2022/02/06 06:09:25;;;;;;;39.30;7.82;;;7.90;99.90;;;;;;4993637;28;20474;-57
2022/02/06 06:11:51;;;;;;;26.90;6.55;;;7.90;99.90;;;;;;4962098;28;20376;-57
2022/02/06 06:14:17;;;;;;;28.30;6.10;;;7.90;99.90;;;;;;4978471;28;20043;-57
2022/02/06 06:16:43;;;;;;;27.67;6.43;;;7.90;99.90;;;;;;4957072;28;20055;-57
2022/02/06 06:19:10;;;;;;;29.60;7.00;;;7.80;99.90;;;;;;4955285;28;20055;-57
2022/02/06 06:21:41;;;;;;;36.58;7.03;;;7.90;99.90;;;;;;4948599;28;20054;-57
2022/02/06 06:24:07;;;;;;;35.80;6.28;;;7.80;99.90;;;;;;4966650;28;20054;-57
2022/02/06 06:26:38;;;;;;;30.90;7.05;;;7.80;99.90;;;;;;4959505;28;20517;-58
2022/02/06 06:29:05;;;;;;;32.67;7.15;;;7.90;99.90;;;;;;4981314;28;20053;-57
2022/02/06 06:31:31;;;;;;;37.55;6.18;;;7.90;99.90;;;;;;4966644;28;20054;-57
2022/02/06 06:33:57;;;;;;;32.85;6.50;;;7.90;99.90;;;;;;4946126;28;20048;-57
2022/02/06 06:36:24;;;;;;;31.75;6.40;;;7.90;99.90;;;;;;4962556;28;20197;-57
2022/02/06 06:38:51;;;;;;;29.13;5.47;;;7.90;99.90;;;;;;5063822;28;20049;-54
2022/02/06 06:41:18;;;;;;;27.70;5.82;;;7.90;99.90;;;;;;5032447;28;20040;-53
2022/02/06 06:43:44;;;;;;;31.02;5.88;;;7.90;99.90;;;;;;4962303;28;20120;-57
2022/02/06 06:46:13;;;;;;;30.30;5.20;;;7.80;99.90;;;;;;4961170;28;20457;-57
2022/02/06 06:48:39;;;;;;;30.27;5.60;;;7.90;99.90;;;;;;4987653;28;20040;-58
2022/02/06 06:51:07;;;;;;;27.73;5.40;;;7.90;99.90;;;;;;4983705;28;20043;-57
2022/02/06 06:53:37;;;;;;;29.23;6.05;;;7.90;99.90;;;;;;4989113;28;20043;-58
2022/02/06 06:56:09;;;;;;;22.75;7.38;;;7.80;99.90;;;;;;5016766;28;20101;-57
2022/02/06 06:58:46;;;;;;;31.88;6.20;;;7.80;99.90;;;;;;5003506;28;20789;-53
2022/02/06 07:03:47;;;;;;;34.85;6.50;;;7.90;99.90;;;;;;4996849;28;20511;-57
2022/02/06 07:06:13;;;;;;;29.00;7.18;;;7.80;99.90;;;;;;5005873;28;20055;-57
2022/02/06 07:08:39;;;;;;;31.23;5.38;;;7.90;99.90;;;;;;5003333;28;20051;-57
2022/02/06 07:11:05;;;;;;;26.05;5.93;;;7.90;99.90;;;;;;4994153;28;20050;-57
2022/02/06 07:13:31;;;;;;;29.73;6.03;;;7.90;99.90;;;;;;4998613;28;20046;-58
2022/02/06 07:15:57;;;;;;;26.77;5.32;;;7.80;99.90;;;;;;5015040;28;20046;-58
2022/02/06 07:18:24;;;;;;;25.23;5.60;;;7.80;99.90;;;;;;4997616;28;20043;-57
2022/02/06 07:20:50;;;;;;;23.65;5.28;;;7.90;99.90;;;;;;5016781;28;20059;-57
2022/02/06 07:23:16;;;;;;;23.05;5.50;;;7.90;99.90;;;;;;4998626;28;20058;-54
2022/02/06 07:25:47;;;;;;;26.33;5.63;;;7.90;99.90;;;;;;5047162;28;20078;-55
2022/02/06 07:28:17;;;;;;;25.33;5.80;;;7.90;99.90;;;;;;4994626;28;20442;-54
2022/02/06 07:30:46;;;;;;;26.13;4.95;;;7.90;99.90;;;;;;4977912;28;20051;-54
2022/02/06 07:33:14;;;;;;;28.35;5.55;;;7.90;99.90;;;;;;4996261;28;20527;-56
2022/02/06 07:35:40;;;;;;;20.30;5.45;;;7.90;99.90;;;;;;5021199;28;20106;-55
2022/02/06 07:38:07;;;;;;;26.20;5.82;;;8.00;99.90;;;;;;5029547;28;20186;-55
2022/02/06 07:40:34;;;;;;;28.27;4.95;;;8.00;99.90;;;;;;4998045;28;20094;-54
2022/02/06 07:43:01;;;;;;;28.52;4.70;;;8.00;99.90;;;;;;5032873;28;20492;-55
2022/02/06 07:45:34;;;;;;;28.05;7.28;;;8.00;99.90;;;;;;5006988;28;20117;-55
2022/02/06 07:48:02;;;;;;;23.08;5.30;;;8.00;99.90;;;;;;5029396;28;20147;-53
2022/02/06 07:50:28;;;;;;;25.98;4.93;;;8.00;99.90;;;;;;5007594;28;20048;-55
2022/02/06 07:52:54;;;;;;;21.33;5.13;;;8.00;99.90;;;;;;5005381;28;20381;-55
2022/02/06 07:55:21;;;;;;;21.08;5.32;;;8.00;99.90;;;;;;4993891;28;20040;-54
2022/02/06 07:57:47;;;;;;;27.85;4.75;;;8.00;99.90;;;;;;4993914;28;20076;-53
2022/02/06 08:00:13;;;;;;;21.73;4.28;;;8.00;99.90;;;;;;4994904;28;20047;-55
2022/02/06 08:02:41;;;;;;;25.50;5.07;;;8.00;99.90;;;;;;5020980;28;20056;-55
2022/02/06 08:05:09;;;;;;;28.30;5.00;;;8.00;99.90;;;;;;5000631;28;20050;-54
2022/02/06 08:07:35;;;;;;;29.40;6.00;;;8.00;99.90;;;;;;4998074;28;20501;-54
2022/02/06 08:10:02;;;;;;;27.30;4.93;;;8.00;99.90;;;;;;5017545;28;20076;-55
2022/02/06 08:12:32;;;;;;;27.40;5.05;;;8.00;99.90;;;;;;4988386;28;20051;-54
2022/02/06 08:15:03;;;;;;;25.38;5.20;;;8.00;99.90;;;;;;4992645;28;20115;-55
2022/02/06 08:17:39;;;;;;;26.27;5.85;;;8.00;99.90;;;;;;5015610;28;20459;-52
2022/02/06 08:20:11;;;;;;;24.35;4.95;;;8.00;99.90;;;;;;5003831;28;20404;-55
2022/02/06 08:22:37;;;;;;;21.55;4.40;;;8.00;99.90;;;;;;4997661;28;20055;-56
2022/02/06 08:25:05;;;;;;;29.20;4.95;;;8.00;99.90;;;;;;4971249;28;20044;-56
2022/02/06 08:27:31;;;;;;;31.52;6.45;;;8.00;99.90;;;;;;4998594;28;20271;-56
2022/02/06 08:29:59;;;;;;;32.70;5.50;;;8.10;99.90;;;;;;4954024;28;20051;-54
2022/02/06 08:32:27;;;;;;;26.48;4.95;;;8.00;99.90;;;;;;4940425;28;20050;-56
2022/02/06 08:34:55;;;;;;;24.92;4.57;;;8.10;99.90;;;;;;4982450;28;20604;-51
2022/02/06 08:37:22;;;;;;;20.23;3.75;;;8.10;99.90;;;;;;4959499;28;20484;-55
2022/02/06 08:39:48;;;;;;;25.48;5.30;;;8.10;99.90;;;;;;4969156;28;20086;-54
2022/02/06 08:42:15;;;;;;;26.67;4.50;;;8.10;99.90;;;;;;4945457;28;20112;-53
2022/02/06 08:44:44;;;;;;;25.25;5.35;;;8.00;99.90;;;;;;4976746;28;20055;-54
2022/02/06 08:47:12;;;;;;;31.40;6.18;;;8.00;99.90;;;;;;4994598;28;20301;-53
2022/02/06 08:49:40;;;;;;;25.58;5.90;;;8.10;99.90;;;;;;5031731;28;20145;-55
2022/02/06 08:52:07;;;;;;;27.38;5.50;;;8.10;99.90;;;;;;5003705;28;20487;-53
2022/02/06 08:54:36;;;;;;;29.30;5.85;;;8.10;99.90;;;;;;4991306;28;20086;-53
2022/02/06 08:57:15;;;;;;;34.67;6.53;;;8.10;99.90;;;;;;4961732;28;20043;-55
2022/02/06 08:59:43;;;;;;;35.67;6.97;;;8.10;99.90;;;;;;4962514;28;20160;-53
2022/02/06 09:02:09;;;;;;;32.60;6.40;;;8.10;99.90;;;;;;4961257;28;20053;-55
2022/02/06 09:04:36;;;;;;;24.27;5.38;;;8.10;99.90;;;;;;4946739;28;20179;-55
2022/02/06 09:07:02;;;;;;;24.27;6.00;;;8.10;99.90;;;;;;4975027;28;20047;-54
2022/02/06 09:09:29;;;;;;;19.48;5.50;;;8.10;99.90;;;;;;4972317;28;20076;-56
2022/02/06 09:11:56;;;;;;;27.77;5.97;;;8.10;99.90;;;;;;4944404;28;20057;-55
2022/02/06 09:14:24;;;;;;;19.83;5.95;;;8.10;99.90;;;;;;4963058;28;20187;-55
2022/02/06 09:16:54;;;;;;;22.30;5.45;;;8.10;99.90;;;;;;4989900;28;20042;-54
2022/02/06 09:19:20;;;;;;;26.23;6.22;;;8.10;99.90;;;;;;4964462;28;20046;-55
2022/02/06 09:21:47;;;;;;;25.05;5.53;;;8.10;99.90;;;;;;4982668;28;20076;-55
2022/02/06 09:24:14;;;;;;;24.27;6.15;;;8.10;99.90;;;;;;5030069;28;20057;-53
2022/02/06 09:26:41;;;;;;;24.80;6.55;;;8.10;99.90;;;;;;5004544;28;20137;-54
2022/02/06 09:29:08;;;;;;;22.90;5.65;;;8.10;99.90;;;;;;4946060;28;20157;-56
2022/02/06 09:31:36;;;;;;;21.88;5.03;;;8.20;99.90;;;;;;4993893;28;20050;-57
2022/02/06 09:36:28;;;;;;;15.52;4.45;;;8.20;99.90;;;;;;4980076;28;20043;-56
2022/02/06 09:38:54;;;;;;;14.73;4.32;;;8.20;99.90;;;;;;4966125;28;20047;-56
2022/02/06 09:41:21;;;;;;;20.20;5.22;;;8.20;99.90;;;;;;4962563;28;20523;-56
2022/02/06 09:43:47;;;;;;;22.23;4.65;;;8.20;99.90;;;;;;4963206;28;20497;-56
2022/02/06 09:46:14;;;;;;;23.92;5.07;;;8.20;99.90;;;;;;4994082;28;20054;-56
2022/02/06 09:48:42;;;;;;;19.15;5.53;;;8.20;99.90;;;;;;4981729;28;20073;-56
2022/02/06 09:51:10;;;;;;;19.77;5.03;;;8.20;99.90;;;;;;4977946;28;20108;-56
2022/02/06 09:53:37;;;;;;;20.05;4.60;;;8.20;99.90;;;;;;5026527;28;20043;-55
2022/02/06 09:56:12;;;;;;;15.50;4.85;;;8.20;99.90;;;;;;4961776;28;20074;-55
2022/02/06 10:01:16;;;;;;;16.05;4.20;;;8.20;99.90;;;;;;4962551;28;20088;-56
2022/02/06 10:03:58;;;;;;;18.10;4.97;;;8.20;99.90;;;;;;4981944;28;20059;-55
2022/02/06 10:06:32;;;;;;;18.92;4.05;;;8.20;99.90;;;;;;5054660;28;20033;-56
2022/02/06 10:09:01;;;;;;;16.33;3.25;;;8.20;99.90;;;;;;4960103;28;20102;-60
2022/02/06 10:11:29;;;;;;;17.60;3.53;;;8.20;99.90;;;;;;4973561;28;20130;-56
2022/02/06 10:13:55;;;;;;;17.15;4.30;;;8.20;99.90;;;;;;4968851;28;20104;-57
2022/02/06 10:16:23;;;;;;;13.68;3.42;;;8.20;99.90;;;;;;4963612;28;20421;-55
2022/02/06 10:18:49;;;;;;;17.67;3.55;;;8.20;99.90;;;;;;4993925;28;20046;-60
2022/02/06 10:21:21;;;;;;;14.10;3.58;;;8.20;99.90;;;;;;4962383;28;20047;-56
2022/02/06 10:24:01;;;;;;;19.13;3.80;;;8.20;99.90;;;;;;4997815;28;20065;-57
2022/02/06 10:26:52;;;;;;;13.63;3.70;;;8.20;99.90;;;;;;4967901;28;20275;-57
2022/02/06 10:31:59;;;;;;;14.57;3.70;;;8.20;99.90;;;;;;4990069;28;20052;-56
2022/02/06 10:34:26;;;;;;;18.67;3.63;;;8.30;99.90;;;;;;4960977;28;20709;-57
2022/02/06 10:37:12;;;;;;;13.40;3.10;;;8.30;99.90;;;;;;4962374;28;20184;-57
2022/02/06 10:40:06;;;;;;;13.85;2.97;;;8.30;99.90;;;;;;4960487;28;20038;-57
2022/02/06 10:42:38;;;;;;;10.02;2.97;;;8.30;99.90;;;;;;4965094;28;20494;-56
2022/02/06 10:45:16;;;;;;;13.40;3.55;;;8.30;99.90;;;;;;4954291;28;20044;-57
2022/02/06 10:47:44;;;;;;;15.50;3.13;;;8.30;99.90;;;;;;4962332;28;20105;-56
2022/02/06 10:50:23;;;;;;;11.30;3.08;;;8.30;99.90;;;;;;4962117;28;20051;-56
2022/02/06 10:52:50;;;;;;;13.57;3.08;;;8.30;99.90;;;;;;4974198;28;20548;-56
2022/02/06 10:55:18;;;;;;;8.45;2.83;;;8.20;99.90;;;;;;4958333;28;20486;-56
2022/02/06 10:57:59;;;;;;;11.70;2.70;;;8.30;99.90;;;;;;4957413;28;20527;-57
2022/02/06 11:00:31;;;;;;;11.13;2.97;;;8.30;99.90;;;;;;4964143;28;20054;-56
2022/02/06 11:03:09;;;;;;;5.55;2.00;;;8.30;99.90;;;;;;4957844;28;20042;-57
2022/02/06 11:05:48;;;;;;;3.05;0.80;;;7.90;99.90;;;;;;4978644;28;20120;-58
2022/02/06 11:08:23;;;;;;;3.22;0.70;;;6.30;99.90;;;;;;4959968;28;20082;-57
2022/02/06 11:10:56;;;;;;;1.95;0.70;;;5.90;99.90;;;;;;4958287;28;20105;-57
2022/02/06 11:13:24;;;;;;;3.28;0.55;;;5.60;99.90;;;;;;4967436;28;20134;-57
2022/02/06 11:15:50;;;;;;;2.05;0.60;;;5.40;99.90;;;;;;4958446;28;20490;-58
2022/02/06 11:18:24;;;;;;;1.35;0.50;;;5.50;99.90;;;;;;4990232;28;20196;-55
2022/02/06 11:20:59;;;;;;;0.88;0.50;;;5.40;99.90;;;;;;4977687;28;20083;-56
2022/02/06 11:23:37;;;;;;;4.00;0.85;;;5.40;99.90;;;;;;4967826;28;20058;-57
2022/02/06 11:26:04;;;;;;;2.88;0.90;;;5.50;99.90;;;;;;4971693;28;20072;-57
2022/02/06 11:28:30;;;;;;;1.08;0.52;;;5.40;99.90;;;;;;4957576;28;20050;-57
2022/02/06 11:30:57;;;;;;;2.97;0.77;;;5.40;99.90;;;;;;4973063;28;20044;-58
2022/02/06 11:33:23;;;;;;;4.35;0.98;;;5.50;99.90;;;;;;4960724;28;20043;-56
2022/02/06 11:35:56;;;;;;;6.00;1.27;;;5.50;99.90;;;;;;4968124;28;20043;-56
2022/02/06 11:44:44;;;;;;;;;;;5.50;99.90;;;;;;4976678;28;20760;-56
2022/02/06 11:47:10;;;;;;;5.38;0.90;;;5.60;99.90;;;;;;4972905;28;20395;-57
2022/02/06 11:49:39;;;;;;;5.35;0.98;;;5.70;99.90;;;;;;4969523;28;20040;-60
2022/02/06 11:52:06;;;;;;;7.35;1.40;;;5.70;99.90;;;;;;4990707;28;20067;-57
2022/02/06 11:54:52;;;;;;;3.72;0.93;;;5.80;99.90;;;;;;5046168;28;20047;-56
2022/02/06 12:00:06;;;;;;;4.80;1.33;;;5.70;99.90;;;;;;4963786;28;20082;-57
2022/02/06 12:02:42;;;;;;;3.63;0.80;;;5.80;99.90;;;;;;4985456;28;20062;-57
2022/02/06 12:05:18;;;;;;;8.00;1.20;;;5.70;99.90;;;;;;4947037;28;20043;-61
2022/02/06 12:08:10;;;;;;;4.57;0.98;;;5.80;99.90;;;;;;5024874;28;20423;-61
2022/02/06 12:10:36;;;;;;;7.82;1.25;;;5.80;99.90;;;;;;4961876;28;20776;-62
2022/02/06 12:13:19;;;;;;;6.38;0.80;;;5.90;99.90;;;;;;4971706;28;20117;-61
2022/02/06 12:16:01;;;;;;;6.60;1.05;;;5.90;99.90;;;;;;4962233;28;20154;-60
2022/02/06 12:18:40;;;;;;;6.60;1.00;;;5.90;99.90;;;;;;4973090;28;20471;-61
2022/02/06 12:21:15;;;;;;;4.47;0.80;;;5.90;99.90;;;;;;4964391;28;20055;-60
2022/02/06 12:23:55;;;;;;;7.85;0.90;;;5.90;99.90;;;;;;4997714;28;20095;-60
2022/02/06 12:26:37;;;;;;;3.17;0.70;;;5.80;99.90;;;;;;4977867;28;20055;-61
2022/02/06 12:29:19;;;;;;;4.40;0.82;;;5.90;99.90;;;;;;4971247;28;20105;-61
2022/02/06 12:32:04;;;;;;;5.65;1.20;;;5.90;99.90;;;;;;4947035;28;20059;-61
2022/02/06 12:37:32;;;;;;;2.20;0.90;;;5.90;99.90;;;;;;4962767;28;20429;-57
2022/02/06 12:40:06;;;;;;;7.55;1.30;;;5.90;99.90;;;;;;4963409;28;20093;-56
2022/02/06 12:42:39;;;;;;;6.10;1.13;;;6.00;99.90;;;;;;5028422;28;20148;-61
2022/02/06 12:45:09;;;;;;;8.00;1.05;;;6.00;99.90;;;;;;4971781;28;20045;-61
2022/02/06 12:47:43;;;;;;;4.88;1.10;;;6.00;99.90;;;;;;4978911;28;20049;-60
2022/02/06 12:50:18;;;;;;;10.85;3.00;;;6.10;99.90;;;;;;4974233;28;20082;-62
2022/02/06 12:52:45;;;;;;;9.27;1.15;;;6.10;99.90;;;;;;4977549;28;20074;-61
2022/02/06 12:55:12;;;;;;;8.23;1.55;;;6.10;99.90;;;;;;4962504;28;20450;-61
2022/02/06 12:57:50;;;;;;;9.43;1.58;;;6.20;99.90;;;;;;5001091;28;20474;-61
2022/02/06 13:00:48;;;;;;;9.15;1.73;;;6.20;99.90;;;;;;5005713;28;20048;-61
2022/02/06 13:03:35;;;;;;;13.90;1.85;;;6.20;99.90;;;;;;4942739;28;20447;-61
2022/02/06 13:06:14;;;;;;;8.68;2.28;;;6.20;99.90;;;;;;4981387;28;20602;-61
2022/02/06 13:08:42;;;;;;;9.23;1.95;;;6.20;99.90;;;;;;4992044;28;20422;-61
2022/02/06 13:11:19;;;;;;;11.23;2.10;;;6.30;99.90;;;;;;5002873;28;20044;-61
2022/02/06 13:13:57;;;;;;;8.85;2.28;;;6.20;99.90;;;;;;4980280;28;20082;-61
2022/02/06 13:29:58;;;;;;;9.68;1.88;;;6.20;99.90;;;;;;4981656;28;20691;-61
2022/02/06 13:32:39;;;;;;;8.98;2.42;;;6.30;99.90;;;;;;4979724;28;20053;-61
2022/02/06 13:38:01;;;;;;;13.68;2.30;;;6.40;99.90;;;;;;4968651;28;20051;-61
2022/02/06 13:40:30;;;;;;;10.23;2.20;;;6.40;99.90;;;;;;5010574;28;20431;-61
2022/02/06 13:42:58;;;;;;;12.55;2.13;;;6.40;99.90;;;;;;4995641;28;20062;-61
2022/02/06 13:45:27;;;;;;;13.63;1.92;;;6.40;99.90;;;;;;4993998;28;20114;-61
2022/02/06 13:47:55;;;;;;;10.60;1.92;;;6.50;99.90;;;;;;4999911;28;20047;-61
2022/02/06 13:50:23;;;;;;;8.48;2.30;;;6.50;99.90;;;;;;4982378;28;20101;-61
2022/02/06 13:53:12;;;;;;;13.45;2.20;;;6.60;99.90;;;;;;4979202;28;20104;-61
2022/02/06 13:55:48;;;;;;;10.60;2.33;;;6.70;99.90;;;;;;4994097;28;20097;-61
2022/02/06 13:58:17;;;;;;;4.45;1.77;;;6.70;99.90;;;;;;4981805;28;20697;-61
2022/02/06 14:00:52;;;;;;;11.82;2.33;;;6.70;99.90;;;;;;4984083;28;20042;-61
2022/02/06 14:03:18;;;;;;;12.55;2.65;;;6.80;99.90;;;;;;4971493;28;20048;-57
2022/02/06 14:05:50;;;;;;;12.82;2.30;;;6.80;99.90;;;;;;4966191;28;20050;-62
2022/02/06 14:08:21;;;;;;;11.75;2.30;;;6.80;99.90;;;;;;4972189;28;20080;-56
2022/02/06 14:11:16;;;;;;;14.32;2.50;;;6.90;99.90;;;;;;4984059;28;20097;-56
2022/02/06 14:13:42;;;;;;;9.18;2.20;;;7.00;99.90;;;;;;4948766;28;20050;-56
2022/02/06 14:16:11;;;;;;;13.00;2.35;;;6.90;99.90;;;;;;4965504;28;20050;-57
2022/02/06 14:18:48;;;;;;;9.05;2.55;;;7.00;99.90;;;;;;4944583;28;20460;-58
2022/02/06 14:21:15;;;;;;;11.68;1.88;;;7.10;99.90;;;;;;4963951;28;20047;-56
2022/02/06 14:23:42;;;;;;;16.70;2.97;;;7.00;99.90;;;;;;4977108;28;20063;-56
2022/02/06 14:26:14;;;;;;;15.38;2.30;;;7.00;99.90;;;;;;4970769;28;20061;-56
2022/02/06 14:28:50;;;;;;;10.48;2.92;;;7.00;99.90;;;;;;4967313;27;20602;-57
2022/02/06 14:31:24;;;;;;;16.17;4.65;;;7.00;99.90;;;;;;4936623;28;20059;-55
2022/02/06 14:33:50;;;;;;;17.30;2.63;;;7.10;99.90;;;;;;4920248;28;20051;-55
2022/02/06 14:36:21;;;;;;;16.77;2.65;;;7.10;99.90;;;;;;4922329;28;20051;-55
2022/02/06 14:38:58;;;;;;;10.57;2.17;;;7.10;99.90;;;;;;4954866;28;20043;-55
2022/02/06 14:44:08;;;;;;;9.65;2.47;;;7.00;99.90;;;;;;4922672;28;20495;-55
2022/02/06 14:46:36;;;;;;;13.68;3.25;;;7.00;99.90;;;;;;4946339;28;20058;-56
2022/02/06 14:49:06;;;;;;;13.75;2.97;;;7.00;99.90;;;;;;4932174;28;20056;-55
2022/02/06 14:51:34;;;;;;;11.85;2.72;;;7.00;99.90;;;;;;4937546;28;20059;-61
2022/02/06 14:54:03;;;;;;;15.95;4.07;;;7.00;99.90;;;;;;4928068;28;20511;-61
2022/02/06 14:56:31;;;;;;;11.18;3.08;;;7.00;99.90;;;;;;4927960;28;20048;-61
2022/02/06 14:58:58;;;;;;;11.35;2.70;;;7.00;99.90;;;;;;4954030;28;20058;-61
2022/02/06 15:01:25;;;;;;;11.20;2.20;;;6.90;99.90;;;;;;4925386;28;20107;-60
2022/02/06 15:03:51;;;;;;;10.75;2.15;;;6.90;99.90;;;;;;4918605;28;20477;-61
2022/02/06 15:06:17;;;;;;;11.60;2.17;;;6.90;99.90;;;;;;4922236;28;20209;-60
2022/02/06 15:08:44;;;;;;;14.77;2.20;;;6.90;99.90;;;;;;4940077;28;20406;-60
2022/02/06 15:11:10;;;;;;;8.18;2.50;;;6.90;99.90;;;;;;4929978;28;20047;-61
2022/02/06 15:13:36;;;;;;;18.88;3.92;;;6.90;99.90;;;;;;4959065;28;20083;-61
2022/02/06 15:16:11;;;;;;;11.52;2.53;;;6.80;99.90;;;;;;4958943;28;20048;-57
2022/02/06 15:18:39;;;;;;;14.45;2.78;;;6.80;99.90;;;;;;4948476;28;20055;-56
2022/02/06 15:21:07;;;;;;;16.67;2.88;;;6.70;99.90;;;;;;4942593;28;20051;-55
2022/02/06 15:23:35;;;;;;;10.20;2.03;;;6.70;99.90;;;;;;4960551;28;20055;-55
2022/02/06 15:26:01;;;;;;;12.90;2.20;;;6.70;99.90;;;;;;4942891;28;20589;-61
2022/02/06 15:28:27;;;;;;;9.88;2.28;;;6.70;99.90;;;;;;4928009;28;20042;-61
2022/02/06 15:30:54;;;;;;;11.73;2.10;;;6.70;99.90;;;;;;4928126;28;20528;-55
2022/02/06 15:33:20;;;;;;;13.82;2.95;;;6.60;99.90;;;;;;4946714;28;20148;-56
2022/02/06 15:35:47;;;;;;;14.60;2.10;;;6.60;99.90;;;;;;4966552;28;20498;-57
2022/02/06 15:38:16;;;;;;;10.75;2.13;;;6.60;99.90;;;;;;4969276;28;20040;-57
2022/02/06 15:40:42;;;;;;;13.63;2.85;;;6.60;99.90;;;;;;4993109;28;20056;-57
2022/02/06 15:43:09;;;;;;;13.60;3.13;;;6.60;99.90;;;;;;5004326;28;20060;-57
2022/02/06 15:45:39;;;;;;;12.30;3.08;;;6.50;99.90;;;;;;4982667;28;20495;-57
2022/02/06 15:48:06;;;;;;;15.32;3.17;;;6.50;99.90;;;;;;4995863;28;20050;-56
2022/02/06 15:50:33;;;;;;;11.70;2.72;;;6.50;99.90;;;;;;4971570;28;20048;-62
2022/02/06 15:52:59;;;;;;;17.77;3.30;;;6.40;99.90;;;;;;4957668;28;20048;-56
2022/02/06 15:55:25;;;;;;;13.40;2.53;;;6.40;99.90;;;;;;5037489;28;20445;-56
2022/02/06 15:57:51;;;;;;;14.93;2.75;;;6.40;99.90;;;;;;5008349;28;20057;-57